Time;durP1;ratioP1;P1;durP2;ratioP2;P2;SDS_P1;SDS_P2;PMS_P1;PMS_P2;Temp;Humidity;BMP_temperature;BMP_pressure;BME280_temperature;BME280_humidity;BME280_pressure;Samples;Min_cycle;Max_cycle;Signal;HPM_P1;HPM_P2
2022/08/20 00:02:03;;;;;;;12.05;7.43;;;19.90;99.90;;;;;;4962803;28;20041;-75
2022/08/20 00:04:29;;;;;;;12.85;7.30;;;19.90;99.90;;;;;;5015750;28;20077;-75
2022/08/20 00:06:55;;;;;;;10.02;6.47;;;19.90;99.90;;;;;;4967240;28;20074;-75
2022/08/20 00:09:20;;;;;;;11.32;7.10;;;19.90;99.90;;;;;;4967428;28;20088;-75
2022/08/20 00:11:46;;;;;;;10.38;6.88;;;19.80;99.90;;;;;;4966078;28;20502;-76
2022/08/20 00:14:12;;;;;;;7.60;6.35;;;19.80;99.90;;;;;;4958742;28;20031;-76
2022/08/20 00:16:37;;;;;;;9.77;6.70;;;19.80;99.90;;;;;;4967582;28;20384;-76
2022/08/20 00:19:06;;;;;;;9.18;6.28;;;19.80;99.90;;;;;;4963986;28;20036;-76
2022/08/20 00:21:32;;;;;;;12.43;7.10;;;19.80;99.90;;;;;;4967659;28;20057;-75
2022/08/20 00:23:58;;;;;;;9.27;7.70;;;19.80;99.90;;;;;;4963935;28;20036;-75
2022/08/20 00:26:24;;;;;;;10.82;7.30;;;19.80;99.90;;;;;;4964442;28;20038;-74
2022/08/20 00:28:51;;;;;;;9.82;7.07;;;19.80;99.90;;;;;;4953650;28;20480;-74
2022/08/20 00:31:19;;;;;;;8.55;6.80;;;19.70;99.90;;;;;;4961596;28;20063;-75
2022/08/20 00:33:46;;;;;;;9.48;6.30;;;19.80;99.90;;;;;;4969090;28;20038;-75
2022/08/20 00:36:12;;;;;;;8.50;6.53;;;19.80;99.90;;;;;;4966476;28;20498;-75
2022/08/20 00:38:40;;;;;;;10.35;7.40;;;19.70;99.90;;;;;;4963053;28;20049;-75
2022/08/20 00:41:10;;;;;;;8.68;6.90;;;19.70;99.90;;;;;;4977984;28;20070;-75
2022/08/20 00:43:46;;;;;;;10.00;6.90;;;19.70;99.90;;;;;;4965772;28;20503;-75
2022/08/20 00:46:19;;;;;;;12.30;6.50;;;19.60;99.90;;;;;;4961976;28;20047;-75
2022/08/20 00:48:47;;;;;;;11.95;6.50;;;19.60;99.90;;;;;;4979270;28;20044;-75
2022/08/20 00:51:20;;;;;;;8.90;6.40;;;19.60;99.90;;;;;;4946489;28;20034;-75
2022/08/20 00:53:46;;;;;;;9.85;6.30;;;19.50;99.90;;;;;;4965517;28;20043;-75
2022/08/20 00:56:14;;;;;;;9.57;6.63;;;19.50;99.90;;;;;;4983192;28;20542;-75
2022/08/20 00:58:44;;;;;;;8.65;6.88;;;19.50;99.90;;;;;;4958245;28;20074;-75
2022/08/20 01:01:10;;;;;;;9.45;6.30;;;19.50;99.90;;;;;;4963734;28;20039;-75
2022/08/20 01:03:36;;;;;;;13.45;6.40;;;19.50;99.90;;;;;;4953329;28;20051;-74
2022/08/20 01:06:02;;;;;;;10.95;6.53;;;19.50;99.90;;;;;;4970998;28;20069;-73
2022/08/20 01:08:28;;;;;;;11.32;6.85;;;19.50;99.90;;;;;;4979797;28;20035;-74
2022/08/20 01:11:55;;;;;;;9.27;7.00;;;19.50;99.90;;;;;;4963425;28;20391;-75
2022/08/20 01:13:50;;;;;;;9.23;6.63;;;19.50;99.90;;;;;;4961198;28;20046;-73
2022/08/20 01:16:23;;;;;;;11.18;6.50;;;19.50;99.90;;;;;;4958541;28;20034;-75
2022/08/20 01:18:50;;;;;;;8.48;6.65;;;19.50;99.90;;;;;;4967738;28;20035;-73
2022/08/20 01:21:24;;;;;;;11.30;6.30;;;19.50;99.90;;;;;;4959049;28;20134;-73
2022/08/20 01:23:59;;;;;;;8.68;6.30;;;19.50;99.90;;;;;;4970528;28;20039;-72
2022/08/20 01:26:35;;;;;;;10.07;6.80;;;19.50;99.90;;;;;;4952087;28;20051;-74
2022/08/20 01:29:09;;;;;;;10.25;6.82;;;19.50;99.90;;;;;;4966131;28;20039;-74
2022/08/20 01:31:39;;;;;;;10.68;6.38;;;19.40;99.90;;;;;;4963609;28;20051;-74
2022/08/20 01:34:07;;;;;;;11.10;7.05;;;19.50;99.90;;;;;;4968448;28;20114;-74
2022/08/20 01:36:42;;;;;;;12.30;6.78;;;19.50;99.90;;;;;;4964925;28;20043;-74
2022/08/20 01:39:11;;;;;;;8.85;6.07;;;19.40;99.90;;;;;;4967686;28;20038;-74
2022/08/20 01:41:51;;;;;;;9.80;6.50;;;19.40;99.90;;;;;;4967817;28;20077;-74
2022/08/20 01:44:18;;;;;;;10.13;6.30;;;19.40;99.90;;;;;;4970261;28;20096;-74
2022/08/20 01:46:46;;;;;;;11.23;6.47;;;19.40;99.90;;;;;;4968114;28;20384;-74
2022/08/20 01:49:17;;;;;;;9.88;6.25;;;19.30;99.90;;;;;;4970517;28;20050;-74
2022/08/20 01:51:43;;;;;;;12.23;6.85;;;19.30;99.90;;;;;;4963014;28;20078;-74
2022/08/20 01:54:09;;;;;;;8.85;5.90;;;19.30;99.90;;;;;;4965361;28;20464;-74
2022/08/20 01:56:49;;;;;;;9.95;6.50;;;19.30;99.90;;;;;;4958036;28;20513;-73
2022/08/20 01:59:15;;;;;;;8.68;5.70;;;19.30;99.90;;;;;;4966325;28;20046;-74
2022/08/20 02:01:40;;;;;;;12.32;6.28;;;19.30;99.90;;;;;;4968914;28;20057;-74
2022/08/20 02:04:09;;;;;;;11.48;6.03;;;19.20;99.90;;;;;;4968931;28;20405;-74
2022/08/20 02:06:39;;;;;;;11.13;5.97;;;19.30;99.90;;;;;;4956816;28;20120;-75
2022/08/20 02:09:06;;;;;;;8.75;6.05;;;19.30;99.90;;;;;;4958794;28;20189;-74
2022/08/20 02:11:33;;;;;;;11.85;5.93;;;19.30;99.90;;;;;;4968824;28;20121;-74
2022/08/20 02:13:59;;;;;;;9.38;5.55;;;19.20;99.90;;;;;;4968477;28;20070;-74
2022/08/20 02:16:31;;;;;;;10.07;6.72;;;19.20;99.90;;;;;;4971140;28;20049;-73
2022/08/20 02:19:08;;;;;;;9.93;5.75;;;19.20;99.90;;;;;;4963654;28;20096;-73
2022/08/20 02:21:35;;;;;;;11.15;5.82;;;19.20;99.90;;;;;;4962991;28;20047;-73
2022/08/20 02:24:00;;;;;;;12.93;6.20;;;19.20;99.90;;;;;;4969493;28;20114;-73
2022/08/20 02:26:28;;;;;;;11.38;5.57;;;19.10;99.90;;;;;;4961678;28;20122;-73
2022/08/20 02:28:54;;;;;;;10.68;5.80;;;19.10;99.90;;;;;;4952123;28;20121;-73
2022/08/20 02:31:21;;;;;;;10.00;6.03;;;19.10;99.90;;;;;;4968735;28;20035;-73
2022/08/20 02:33:48;;;;;;;10.75;5.38;;;19.10;99.90;;;;;;4969927;28;20035;-73
2022/08/20 02:36:16;;;;;;;8.93;6.05;;;19.00;99.90;;;;;;4968800;28;20054;-74
2022/08/20 02:38:43;;;;;;;9.00;5.95;;;19.00;99.90;;;;;;4965599;28;20131;-74
2022/08/20 02:41:11;;;;;;;9.52;5.70;;;19.00;99.90;;;;;;4966430;28;20050;-73
2022/08/20 02:43:37;;;;;;;10.30;6.10;;;19.00;99.90;;;;;;4960425;28;20066;-74
2022/08/20 02:46:04;;;;;;;11.20;6.25;;;19.00;99.90;;;;;;4963732;28;20089;-73
2022/08/20 02:48:32;;;;;;;10.32;6.07;;;18.90;99.90;;;;;;4967494;28;20039;-74
2022/08/20 02:51:01;;;;;;;10.95;6.30;;;18.90;99.90;;;;;;4958969;28;20042;-73
2022/08/20 02:53:31;;;;;;;13.68;6.65;;;18.90;99.90;;;;;;4962614;28;20034;-74
2022/08/20 02:55:58;;;;;;;9.52;6.35;;;18.90;99.90;;;;;;4965670;28;20447;-74
2022/08/20 02:58:24;;;;;;;9.82;5.93;;;18.90;99.90;;;;;;4977748;28;20512;-74
2022/08/20 03:00:51;;;;;;;9.57;6.55;;;18.90;99.90;;;;;;4962717;28;20326;-74
2022/08/20 03:03:21;;;;;;;11.45;6.10;;;18.90;99.90;;;;;;4966238;28;20096;-74
2022/08/20 03:05:50;;;;;;;10.23;5.72;;;18.90;99.90;;;;;;4960543;28;20104;-74
2022/08/20 03:08:16;;;;;;;9.45;5.38;;;18.90;99.90;;;;;;4958193;28;20047;-73
2022/08/20 03:10:44;;;;;;;7.82;5.22;;;18.80;99.90;;;;;;4967618;28;20035;-73
2022/08/20 03:13:11;;;;;;;9.73;5.60;;;18.80;99.90;;;;;;4958838;28;20487;-73
2022/08/20 03:15:39;;;;;;;8.57;5.55;;;18.70;99.90;;;;;;4953098;28;20043;-73
2022/08/20 03:18:04;;;;;;;8.57;5.80;;;18.70;99.90;;;;;;4967494;28;20048;-73
2022/08/20 03:20:30;;;;;;;9.23;6.20;;;18.70;99.90;;;;;;4967515;28;20039;-73
2022/08/20 03:22:57;;;;;;;10.23;6.35;;;18.70;99.90;;;;;;4967654;28;20043;-74
2022/08/20 03:25:22;;;;;;;11.73;6.10;;;18.70;99.90;;;;;;4968728;28;20578;-73
2022/08/20 03:27:48;;;;;;;11.93;6.18;;;18.70;99.90;;;;;;4966199;28;20114;-73
2022/08/20 03:30:16;;;;;;;10.63;5.82;;;18.70;99.90;;;;;;4968420;28;20737;-73
2022/08/20 03:32:42;;;;;;;10.98;6.10;;;18.70;99.90;;;;;;4965854;28;20388;-73
2022/08/20 03:35:10;;;;;;;11.57;6.85;;;18.70;99.90;;;;;;4960038;28;20039;-73
2022/08/20 03:37:40;;;;;;;12.05;6.13;;;18.70;99.90;;;;;;4975293;28;20051;-74
2022/08/20 03:40:09;;;;;;;10.57;6.00;;;18.70;99.90;;;;;;4961122;28;20407;-74
2022/08/20 03:42:35;;;;;;;12.73;6.10;;;18.70;99.90;;;;;;4966081;28;20100;-73
2022/08/20 03:45:02;;;;;;;12.18;6.07;;;18.70;99.90;;;;;;4960881;28;20126;-73
2022/08/20 03:47:27;;;;;;;10.82;6.47;;;18.70;99.90;;;;;;4960073;28;20523;-73
2022/08/20 03:49:58;;;;;;;10.05;6.00;;;18.70;99.90;;;;;;4968205;28;20034;-73
2022/08/20 03:52:24;;;;;;;11.77;6.22;;;18.70;99.90;;;;;;4956498;28;20357;-73
2022/08/20 03:54:50;;;;;;;12.18;5.90;;;18.70;99.90;;;;;;4949958;28;20414;-73
2022/08/20 03:57:15;;;;;;;10.82;6.25;;;18.70;99.90;;;;;;4967153;28;20042;-73
2022/08/20 03:59:43;;;;;;;9.13;5.82;;;18.80;99.90;;;;;;4991295;28;20042;-74
2022/08/20 04:02:10;;;;;;;11.13;6.15;;;18.70;99.90;;;;;;4966236;28;20047;-74
2022/08/20 04:04:37;;;;;;;10.95;6.60;;;18.70;99.90;;;;;;4961920;28;20407;-73
2022/08/20 04:07:24;;;;;;;9.00;6.10;;;18.70;99.90;;;;;;4955214;28;20403;-73
2022/08/20 04:09:51;;;;;;;8.18;5.47;;;18.80;99.90;;;;;;4952620;28;20482;-73
2022/08/20 04:12:17;;;;;;;10.82;5.90;;;18.70;99.90;;;;;;4960964;28;20046;-73
2022/08/20 04:14:42;;;;;;;10.20;5.63;;;18.70;99.90;;;;;;4954208;28;20039;-74
2022/08/20 04:17:11;;;;;;;8.50;6.00;;;18.60;99.90;;;;;;4956713;28;20123;-74
2022/08/20 04:19:37;;;;;;;10.75;5.72;;;18.60;99.90;;;;;;4958591;28;20051;-73
2022/08/20 04:22:03;;;;;;;10.63;5.57;;;18.70;99.90;;;;;;4956239;28;20122;-74
2022/08/20 04:24:30;;;;;;;10.35;5.25;;;18.60;99.90;;;;;;4966802;28;20038;-74
2022/08/20 04:26:56;;;;;;;9.65;5.60;;;18.60;99.90;;;;;;4950996;28;20058;-74
2022/08/20 04:29:23;;;;;;;13.20;5.43;;;18.60;99.90;;;;;;4951845;28;20031;-74
2022/08/20 04:31:49;;;;;;;10.10;5.88;;;18.50;99.90;;;;;;4964024;28;20117;-74
2022/08/20 04:34:18;;;;;;;12.32;5.43;;;18.50;99.90;;;;;;4944056;28;20575;-73
2022/08/20 04:36:46;;;;;;;10.43;5.53;;;18.50;99.90;;;;;;4967979;28;20039;-74
2022/08/20 04:39:15;;;;;;;11.93;5.95;;;18.50;99.90;;;;;;4966283;28;20472;-74
2022/08/20 04:41:41;;;;;;;9.07;5.13;;;18.40;99.90;;;;;;4966873;28;20414;-74
2022/08/20 04:44:08;;;;;;;11.73;5.80;;;18.40;99.90;;;;;;4968407;28;20486;-74
2022/08/20 04:46:35;;;;;;;12.27;5.72;;;18.30;99.90;;;;;;4968797;28;20145;-74
2022/08/20 04:49:02;;;;;;;10.93;5.10;;;18.40;99.90;;;;;;4962155;28;20054;-74
2022/08/20 04:51:28;;;;;;;10.63;5.55;;;18.40;99.90;;;;;;4983288;28;20035;-74
2022/08/20 04:53:55;;;;;;;8.77;5.13;;;18.30;99.90;;;;;;4967286;28;20069;-74
2022/08/20 04:56:26;;;;;;;9.23;5.45;;;18.30;99.90;;;;;;4964420;28;20850;-73
2022/08/20 04:58:58;;;;;;;8.70;5.10;;;18.20;99.90;;;;;;4960169;28;20039;-74
2022/08/20 05:01:25;;;;;;;8.80;4.97;;;18.20;99.90;;;;;;4967568;28;20445;-73
2022/08/20 05:03:55;;;;;;;10.60;5.38;;;18.20;99.90;;;;;;4961779;28;20047;-73
2022/08/20 05:06:24;;;;;;;9.23;5.45;;;18.10;99.90;;;;;;4964924;28;20433;-74
2022/08/20 05:08:50;;;;;;;9.90;5.32;;;18.10;99.90;;;;;;4962158;28;20414;-74
2022/08/20 05:11:17;;;;;;;10.93;4.75;;;18.10;99.90;;;;;;4965163;28;20047;-73
2022/08/20 05:13:42;;;;;;;10.88;5.18;;;18.10;99.90;;;;;;4964577;28;20521;-73
2022/08/20 05:16:09;;;;;;;8.60;5.22;;;18.10;99.90;;;;;;4950887;28;20038;-74
2022/08/20 05:18:35;;;;;;;9.63;5.50;;;18.00;99.90;;;;;;4957524;28;20031;-73
2022/08/20 05:21:05;;;;;;;8.80;4.95;;;18.10;99.90;;;;;;4963035;28;20059;-74
2022/08/20 05:23:33;;;;;;;10.95;5.18;;;18.10;99.90;;;;;;4964561;28;20092;-74
2022/08/20 05:26:00;;;;;;;10.80;5.20;;;18.10;99.90;;;;;;4964716;28;20073;-73
2022/08/20 05:28:31;;;;;;;10.27;5.35;;;18.10;99.90;;;;;;4964649;28;20050;-74
2022/08/20 05:31:01;;;;;;;10.85;5.70;;;18.10;99.90;;;;;;4958965;28;20046;-73
2022/08/20 05:33:28;;;;;;;9.25;4.50;;;18.10;99.90;;;;;;4957712;28;20441;-74
2022/08/20 05:35:54;;;;;;;8.05;5.05;;;18.10;99.90;;;;;;4955842;28;20495;-74
2022/08/20 05:38:24;;;;;;;9.18;5.40;;;18.20;99.90;;;;;;4960251;28;20486;-76
2022/08/20 05:40:51;;;;;;;9.13;5.30;;;18.20;99.90;;;;;;4963504;28;20054;-76
2022/08/20 05:43:17;;;;;;;9.57;4.80;;;18.10;99.90;;;;;;4947743;28;20085;-76
2022/08/20 05:45:45;;;;;;;7.57;4.65;;;18.20;99.90;;;;;;4963569;28;20043;-76
2022/08/20 05:48:16;;;;;;;10.57;4.85;;;18.10;99.90;;;;;;4961648;28;20035;-76
2022/08/20 05:50:45;;;;;;;6.85;4.80;;;18.20;99.90;;;;;;4958994;28;20433;-76
2022/08/20 05:53:11;;;;;;;12.48;5.20;;;18.10;99.90;;;;;;4965094;28;20043;-75
2022/08/20 05:55:38;;;;;;;10.32;5.35;;;18.10;99.90;;;;;;4941619;28;20038;-75
2022/08/20 05:58:06;;;;;;;6.80;4.65;;;18.20;99.90;;;;;;4966228;28;20423;-75
2022/08/20 06:00:34;;;;;;;8.70;4.93;;;18.20;99.90;;;;;;4965733;28;20051;-75
2022/08/20 06:05:45;;;;;;;8.95;4.68;;;18.20;99.90;;;;;;4974042;28;20082;-76
2022/08/20 06:08:11;;;;;;;10.65;5.05;;;18.20;99.90;;;;;;4953838;28;20073;-77
2022/08/20 06:10:39;;;;;;;11.43;5.15;;;18.10;99.90;;;;;;4969550;28;20051;-75
2022/08/20 06:13:05;;;;;;;10.25;4.95;;;18.10;99.90;;;;;;4967491;28;20050;-77
2022/08/20 06:15:31;;;;;;;11.88;4.97;;;18.10;99.90;;;;;;4952208;28;20039;-77
2022/08/20 06:17:57;;;;;;;10.00;4.60;;;18.10;99.90;;;;;;5002613;28;20095;-78
2022/08/20 06:20:23;;;;;;;8.88;5.05;;;18.10;99.90;;;;;;4969265;28;20050;-77
2022/08/20 06:22:48;;;;;;;9.63;5.50;;;18.10;99.90;;;;;;4962299;28;20039;-77
2022/08/20 06:25:14;;;;;;;10.98;5.22;;;18.10;99.90;;;;;;4973153;28;20062;-77
2022/08/20 06:27:41;;;;;;;9.32;4.90;;;18.10;99.90;;;;;;4973346;28;20122;-77
2022/08/20 06:30:11;;;;;;;9.23;5.00;;;18.10;99.90;;;;;;4973227;28;20113;-78
2022/08/20 06:32:37;;;;;;;10.63;5.70;;;18.10;99.90;;;;;;4966984;28;20040;-78
2022/08/20 06:35:05;;;;;;;8.77;4.82;;;18.20;99.90;;;;;;4950874;28;20043;-77
2022/08/20 06:37:35;;;;;;;11.13;5.30;;;18.20;99.90;;;;;;4958449;28;20411;-78
2022/08/20 06:40:10;;;;;;;12.70;4.53;;;18.20;99.90;;;;;;4960788;28;20035;-78
2022/08/20 06:42:38;;;;;;;10.23;4.68;;;18.20;99.90;;;;;;4957855;28;20050;-78
2022/08/20 06:45:05;;;;;;;8.45;4.72;;;18.30;99.90;;;;;;4961475;28;20263;-76
2022/08/20 06:47:31;;;;;;;10.68;4.50;;;18.30;99.90;;;;;;4947321;28;20127;-78
2022/08/20 06:49:57;;;;;;;11.45;4.30;;;18.30;99.90;;;;;;4967088;28;20110;-76
2022/08/20 06:52:22;;;;;;;9.88;4.00;;;18.30;99.90;;;;;;4962252;28;20198;-77
2022/08/20 06:54:48;;;;;;;10.75;3.95;;;18.30;99.90;;;;;;4960947;28;20031;-76
2022/08/20 06:57:14;;;;;;;14.70;4.35;;;18.30;99.90;;;;;;4959827;28;20118;-76
2022/08/20 06:59:40;;;;;;;6.35;3.40;;;18.30;99.90;;;;;;4960301;28;20042;-77
2022/08/20 07:02:06;;;;;;;9.02;3.63;;;18.30;99.90;;;;;;4949327;28;20522;-79
2022/08/20 07:04:33;;;;;;;9.90;4.03;;;18.30;99.90;;;;;;4965568;28;20148;-77
2022/08/20 07:06:58;;;;;;;9.30;3.40;;;18.30;99.90;;;;;;4945133;28;20038;-78
2022/08/20 07:09:25;;;;;;;5.63;3.30;;;18.30;99.90;;;;;;5025866;28;20034;-75
2022/08/20 07:11:51;;;;;;;8.65;3.60;;;18.20;99.90;;;;;;4980427;28;20031;-76
2022/08/20 07:14:18;;;;;;;8.98;3.40;;;18.30;99.90;;;;;;4953540;28;20498;-80
2022/08/20 07:16:49;;;;;;;10.60;3.45;;;18.20;99.90;;;;;;4952300;28;20047;-76
2022/08/20 07:19:15;;;;;;;9.35;4.10;;;18.30;99.90;;;;;;4981060;28;20053;-76
2022/08/20 07:21:40;;;;;;;10.25;3.90;;;18.30;99.90;;;;;;4970024;28;20043;-76
2022/08/20 07:24:11;;;;;;;7.32;3.17;;;18.30;99.90;;;;;;4963646;28;20081;-76
2022/08/20 07:26:37;;;;;;;5.97;3.42;;;18.30;99.90;;;;;;4954102;28;20042;-75
2022/08/20 07:29:02;;;;;;;9.95;3.05;;;18.30;99.90;;;;;;4970510;28;20399;-76
2022/08/20 07:34:12;;;;;;;7.00;2.40;;;18.30;99.90;;;;;;4987657;28;20510;-76
2022/08/20 07:36:38;;;;;;;9.63;2.95;;;18.30;99.90;;;;;;4969051;28;20054;-77
2022/08/20 07:39:05;;;;;;;10.38;2.92;;;18.30;99.90;;;;;;4965561;28;20031;-77
2022/08/20 07:41:31;;;;;;;11.15;2.72;;;18.30;99.90;;;;;;4963407;28;20038;-76
2022/08/20 07:43:57;;;;;;;11.63;2.83;;;18.30;99.90;;;;;;4968743;28;20553;-77
2022/08/20 07:46:23;;;;;;;4.82;1.95;;;18.40;99.90;;;;;;4968613;28;20544;-77
2022/08/20 07:48:50;;;;;;;8.73;2.10;;;18.40;99.90;;;;;;4965847;28;20117;-77
2022/08/20 07:51:18;;;;;;;8.73;2.25;;;18.40;99.90;;;;;;4947761;28;20035;-76
2022/08/20 07:53:45;;;;;;;7.00;2.28;;;18.40;99.90;;;;;;4967732;28;20099;-77
2022/08/20 07:56:14;;;;;;;4.78;2.22;;;18.50;99.90;;;;;;4956105;28;20046;-77
2022/08/20 07:58:52;;;;;;;8.15;2.30;;;18.50;99.90;;;;;;4971917;28;20043;-76
2022/08/20 08:01:24;;;;;;;9.40;2.08;;;18.50;99.90;;;;;;4962522;28;20046;-77
2022/08/20 08:03:50;;;;;;;6.53;2.00;;;18.50;99.90;;;;;;4977020;28;20042;-76
2022/08/20 08:06:21;;;;;;;4.45;1.73;;;18.50;99.90;;;;;;4965078;28;20053;-77
2022/08/20 08:08:47;;;;;;;5.60;1.73;;;18.50;99.90;;;;;;4972921;28;20034;-79
2022/08/20 08:11:13;;;;;;;8.75;1.90;;;18.50;99.90;;;;;;4968543;28;20035;-78
2022/08/20 08:13:40;;;;;;;6.45;1.85;;;18.50;99.90;;;;;;4968522;28;20052;-78
2022/08/20 08:16:08;;;;;;;6.18;1.60;;;18.50;99.90;;;;;;4968768;28;20047;-76
2022/08/20 08:18:44;;;;;;;7.13;2.30;;;18.50;99.90;;;;;;4967077;28;20038;-77
2022/08/20 08:21:11;;;;;;;6.68;2.08;;;18.40;99.90;;;;;;4958603;28;20043;-77
2022/08/20 08:23:43;;;;;;;5.28;1.85;;;18.50;99.90;;;;;;4967297;28;20419;-79
2022/08/20 08:26:10;;;;;;;8.07;1.90;;;18.50;99.90;;;;;;4964075;28;20042;-77
2022/08/20 08:28:38;;;;;;;4.28;1.50;;;18.50;99.90;;;;;;4977037;28;20067;-77
2022/08/20 08:31:07;;;;;;;7.88;2.40;;;18.50;99.90;;;;;;4980802;28;20061;-77
2022/08/20 08:33:32;;;;;;;5.80;1.77;;;18.50;99.90;;;;;;4968379;28;20368;-77
2022/08/20 08:36:08;;;;;;;6.25;1.95;;;18.60;99.90;;;;;;4964802;28;20096;-77
2022/08/20 08:38:36;;;;;;;7.85;2.08;;;18.60;99.90;;;;;;4972074;28;20051;-78
2022/08/20 08:41:34;;;;;;;4.55;1.50;;;18.70;99.90;;;;;;4959927;28;20053;-77
2022/08/20 08:44:04;;;;;;;6.50;1.50;;;18.80;99.90;;;;;;4978116;28;20042;-78
2022/08/20 08:46:34;;;;;;;6.25;1.70;;;19.00;99.90;;;;;;4960578;28;20073;-78
2022/08/20 08:49:02;;;;;;;5.93;1.60;;;19.10;99.90;;;;;;4964465;28;20093;-78
2022/08/20 08:52:00;;;;;;;5.10;1.77;;;19.30;99.90;;;;;;4970781;28;20069;-78
2022/08/20 08:54:30;;;;;;;5.45;1.77;;;19.50;99.90;;;;;;4964523;28;20047;-78
2022/08/20 08:56:56;;;;;;;5.47;1.95;;;19.70;99.90;;;;;;4968656;28;20046;-78
2022/08/20 08:59:22;;;;;;;5.03;1.80;;;19.90;99.90;;;;;;4962919;28;20130;-78
2022/08/20 09:01:57;;;;;;;4.85;1.70;;;20.10;99.90;;;;;;4951685;28;20038;-78
2022/08/20 09:04:32;;;;;;;5.90;1.85;;;20.30;99.90;;;;;;4963301;28;20040;-78
2022/08/20 09:07:00;;;;;;;6.38;1.70;;;20.50;99.90;;;;;;4968254;28;20477;-78
2022/08/20 09:09:31;;;;;;;5.32;1.75;;;20.60;99.90;;;;;;4993432;28;20380;-78
2022/08/20 09:12:04;;;;;;;4.95;1.50;;;20.80;99.90;;;;;;4966470;28;20062;-79
2022/08/20 09:14:30;;;;;;;5.40;1.60;;;21.00;99.90;;;;;;4972867;28;20050;-79
2022/08/20 09:16:56;;;;;;;3.88;1.30;;;21.10;99.90;;;;;;4963567;28;20043;-78
2022/08/20 09:19:21;;;;;;;6.22;1.60;;;21.30;99.90;;;;;;4959882;28;20479;-80
2022/08/20 09:21:47;;;;;;;7.18;1.65;;;21.50;99.90;;;;;;4963783;28;20038;-79
2022/08/20 09:24:12;;;;;;;6.30;1.98;;;21.60;99.90;;;;;;4974073;28;20043;-79
2022/08/20 09:26:38;;;;;;;5.03;1.67;;;21.80;99.90;;;;;;4972721;28;20043;-79
2022/08/20 09:29:04;;;;;;;6.32;1.75;;;21.90;99.90;;;;;;4959302;28;20039;-78
2022/08/20 09:31:29;;;;;;;10.18;1.77;;;22.00;99.90;;;;;;4968663;28;20035;-79
2022/08/20 09:33:55;;;;;;;6.82;1.60;;;22.10;99.90;;;;;;4970384;28;20479;-80
2022/08/20 09:36:20;;;;;;;7.75;1.48;;;22.20;99.90;;;;;;4956145;28;20046;-79
2022/08/20 09:38:46;;;;;;;6.25;1.40;;;22.40;99.90;;;;;;4973107;28;20043;-79
2022/08/20 09:41:13;;;;;;;5.10;1.40;;;22.50;99.90;;;;;;4955752;28;20135;-79
2022/08/20 09:43:38;;;;;;;4.80;1.48;;;22.60;99.90;;;;;;4959643;28;20047;-79
2022/08/20 09:46:05;;;;;;;5.43;1.35;;;22.80;99.90;;;;;;4966136;28;20047;-79
2022/08/20 09:48:30;;;;;;;6.10;1.48;;;23.00;99.90;;;;;;4962397;28;20084;-79
2022/08/20 09:50:56;;;;;;;5.85;1.38;;;23.10;99.30;;;;;;4965204;28;20042;-79
2022/08/20 09:53:22;;;;;;;5.88;1.48;;;23.30;99.00;;;;;;4972297;28;20582;-79
2022/08/20 09:55:51;;;;;;;17.67;2.15;;;23.50;99.90;;;;;;4971120;28;20487;-80
2022/08/20 09:58:37;;;;;;;7.65;1.58;;;23.50;99.00;;;;;;4969417;28;20403;-79
2022/08/20 10:01:15;;;;;;;6.55;1.95;;;23.70;96.70;;;;;;4963643;28;20418;-78
2022/08/20 10:03:41;;;;;;;5.18;1.35;;;23.80;96.30;;;;;;4970145;28;20484;-79
2022/08/20 10:06:07;;;;;;;5.57;1.30;;;23.80;94.20;;;;;;4957089;28;20097;-79
2022/08/20 10:08:33;;;;;;;5.85;1.80;;;23.80;94.20;;;;;;4967282;28;20035;-78
2022/08/20 10:10:58;;;;;;;4.03;1.40;;;23.90;94.50;;;;;;4970669;28;20095;-79
2022/08/20 10:13:24;;;;;;;4.28;1.38;;;24.10;94.70;;;;;;4969996;28;20035;-79
2022/08/20 10:15:50;;;;;;;6.32;1.40;;;24.30;95.20;;;;;;4968314;28;20138;-79
2022/08/20 10:18:16;;;;;;;5.00;1.33;;;24.40;94.10;;;;;;4952099;28;20043;-78
2022/08/20 10:20:42;;;;;;;4.82;1.65;;;24.40;92.40;;;;;;4969678;28;20715;-80
2022/08/20 10:23:07;;;;;;;6.35;1.90;;;24.50;92.00;;;;;;4970028;28;20130;-78
2022/08/20 10:25:33;;;;;;;6.00;1.70;;;24.40;90.70;;;;;;4962810;28;20091;-78
2022/08/20 10:27:59;;;;;;;4.63;1.60;;;24.40;90.90;;;;;;4967782;28;20046;-78
2022/08/20 10:30:25;;;;;;;4.95;1.75;;;24.50;92.00;;;;;;4968842;28;20047;-80
2022/08/20 10:32:51;;;;;;;3.80;1.50;;;24.70;92.30;;;;;;4962727;28;20043;-78
2022/08/20 10:35:17;;;;;;;5.13;1.65;;;24.80;92.30;;;;;;4964688;28;20483;-78
2022/08/20 10:37:43;;;;;;;5.93;1.50;;;24.90;91.30;;;;;;4967743;28;20047;-79
2022/08/20 10:40:10;;;;;;;3.75;1.55;;;24.60;90.80;;;;;;4986321;28;20117;-79
2022/08/20 10:42:35;;;;;;;4.43;1.50;;;24.30;86.80;;;;;;4968144;28;20125;-79
2022/08/20 10:45:01;;;;;;;4.28;1.55;;;24.20;82.80;;;;;;4984349;28;20166;-79
2022/08/20 10:47:29;;;;;;;5.50;1.50;;;24.20;83.70;;;;;;4968102;28;20049;-78
2022/08/20 10:49:57;;;;;;;5.55;1.90;;;24.30;84.70;;;;;;4981264;28;20081;-79
2022/08/20 10:52:24;;;;;;;5.40;2.00;;;24.50;84.50;;;;;;4968206;28;20043;-80
2022/08/20 10:54:50;;;;;;;6.97;1.50;;;24.60;83.20;;;;;;4968136;28;20035;-78
2022/08/20 10:57:22;;;;;;;3.97;1.50;;;24.80;84.90;;;;;;4969110;28;20054;-79
2022/08/20 10:59:50;;;;;;;5.90;2.35;;;25.10;83.00;;;;;;4946420;28;20099;-80
2022/08/20 11:02:16;;;;;;;5.60;1.80;;;25.10;81.20;;;;;;4957387;28;20038;-79
2022/08/20 11:04:43;;;;;;;4.38;1.60;;;25.20;80.90;;;;;;4969593;28;20507;-79
2022/08/20 11:07:24;;;;;;;7.43;1.63;;;25.10;80.00;;;;;;4954635;28;20039;-79
2022/08/20 11:09:51;;;;;;;5.82;1.75;;;25.20;76.80;;;;;;4970525;28;20487;-79
2022/08/20 11:12:19;;;;;;;4.88;1.40;;;25.00;78.80;;;;;;4967836;28;20035;-79
2022/08/20 11:14:45;;;;;;;5.00;1.50;;;25.00;79.50;;;;;;4960039;28;20248;-80
2022/08/20 11:17:11;;;;;;;7.95;2.00;;;25.00;78.90;;;;;;4962785;28;20070;-79
2022/08/20 11:19:42;;;;;;;3.63;1.50;;;25.00;77.50;;;;;;4970366;28;20043;-79
2022/08/20 11:22:08;;;;;;;5.78;1.50;;;25.10;78.70;;;;;;4970762;28;20046;-78
2022/08/20 11:24:33;;;;;;;6.32;1.40;;;25.30;80.50;;;;;;4961572;28;20440;-79
2022/08/20 11:26:59;;;;;;;5.13;1.48;;;25.50;79.80;;;;;;4970534;28;20388;-79
2022/08/20 11:29:25;;;;;;;6.15;1.73;;;25.50;77.70;;;;;;4970530;28;20035;-79
2022/08/20 11:31:51;;;;;;;4.38;1.50;;;25.60;78.00;;;;;;4966760;28;20043;-79
2022/08/20 11:34:17;;;;;;;5.50;1.77;;;25.70;77.00;;;;;;4963621;28;20035;-79
2022/08/20 11:36:44;;;;;;;6.13;1.73;;;25.80;76.50;;;;;;4967735;28;20084;-80
2022/08/20 11:39:10;;;;;;;8.07;1.73;;;26.00;76.80;;;;;;4967509;28;20031;-79
2022/08/20 11:41:35;;;;;;;6.15;1.73;;;26.20;77.00;;;;;;4970716;28;20122;-79
2022/08/20 11:44:01;;;;;;;5.30;1.58;;;26.40;76.40;;;;;;4965247;28;20047;-79
2022/08/20 11:46:27;;;;;;;5.68;1.80;;;26.50;76.00;;;;;;4967606;28;20055;-81
2022/08/20 11:48:52;;;;;;;6.43;1.73;;;26.70;74.90;;;;;;4965356;28;20056;-81
2022/08/20 11:51:18;;;;;;;5.47;1.63;;;26.80;73.50;;;;;;4959294;28;20089;-80
2022/08/20 11:53:44;;;;;;;5.90;1.70;;;26.70;71.80;;;;;;4962441;28;20031;-80
2022/08/20 11:56:12;;;;;;;5.35;1.83;;;26.60;70.20;;;;;;4951712;28;20085;-80
2022/08/20 11:58:38;;;;;;;5.45;1.67;;;26.50;70.20;;;;;;4962642;28;20129;-80
2022/08/20 12:01:03;;;;;;;4.03;1.60;;;26.50;70.80;;;;;;4962112;28;20042;-79
2022/08/20 12:03:29;;;;;;;9.85;1.73;;;26.60;71.40;;;;;;4965715;28;20115;-80
2022/08/20 12:05:56;;;;;;;5.13;1.80;;;26.50;70.20;;;;;;4964351;28;20062;-80
2022/08/20 12:08:22;;;;;;;6.93;1.85;;;26.40;69.00;;;;;;4963178;28;20483;-79
2022/08/20 12:10:47;;;;;;;5.95;1.67;;;26.30;69.10;;;;;;4965847;28;20034;-80
2022/08/20 12:13:13;;;;;;;6.00;1.90;;;26.10;68.90;;;;;;4945210;28;20558;-81
2022/08/20 12:15:39;;;;;;;4.20;1.77;;;26.00;70.00;;;;;;4954333;28;20042;-80
2022/08/20 12:18:07;;;;;;;5.75;1.85;;;26.20;71.20;;;;;;4948465;28;20399;-80
2022/08/20 12:20:36;;;;;;;4.82;1.73;;;26.40;71.10;;;;;;4949347;28;20092;-79
2022/08/20 12:23:02;;;;;;;4.90;1.67;;;26.60;70.50;;;;;;4965285;28;20374;-82
2022/08/20 12:25:28;;;;;;;6.22;1.75;;;26.70;68.90;;;;;;4951504;28;20082;-83
2022/08/20 12:27:55;;;;;;;4.97;1.67;;;26.30;66.60;;;;;;4948012;28;20031;-78
2022/08/20 12:30:22;;;;;;;4.30;1.80;;;25.90;66.30;;;;;;4949051;28;20446;-77
2022/08/20 12:32:49;;;;;;;4.80;1.88;;;25.60;66.40;;;;;;4959249;28;20047;-78
2022/08/20 12:35:17;;;;;;;3.90;1.60;;;25.30;67.00;;;;;;4947214;28;20035;-80
2022/08/20 12:37:43;;;;;;;4.85;2.05;;;25.00;67.70;;;;;;4955404;28;20054;-78
2022/08/20 12:40:17;;;;;;;4.80;1.60;;;24.80;68.70;;;;;;4965736;28;20057;-78
2022/08/20 12:42:43;;;;;;;4.72;1.70;;;24.70;69.90;;;;;;4978054;28;20034;-79
2022/08/20 12:45:10;;;;;;;7.32;1.67;;;24.70;70.60;;;;;;4957790;28;20035;-78
2022/08/20 12:47:38;;;;;;;5.30;1.70;;;24.60;70.00;;;;;;4966969;28;20088;-78
2022/08/20 12:50:08;;;;;;;8.13;1.77;;;24.40;68.50;;;;;;4950373;28;20081;-80
2022/08/20 12:52:34;;;;;;;4.60;1.70;;;24.20;68.40;;;;;;4963979;28;20027;-80